Time;durP1;ratioP1;P1;durP2;ratioP2;P2;SDS_P1;SDS_P2;PMS_P1;PMS_P2;Temp;Humidity;BMP_temperature;BMP_pressure;BME280_temperature;BME280_humidity;BME280_pressure;Samples;Min_cycle;Max_cycle;Signal;HPM_P1;HPM_P2
2021/06/18 04:16:12;;;;;;;5.45;4.78;;;;;;;17.44;77.01;98571.06;5554925;23;20646;-75
2021/06/18 04:18:44;;;;;;;12.05;5.40;;;;;;;17.38;77.21;98574.00;4916162;29;20115;-76
2021/06/18 04:21:14;;;;;;;7.75;5.13;;;;;;;17.37;76.61;98565.31;4916393;29;20108;-75
2021/06/18 04:23:39;;;;;;;;;;;;;;;17.52;76.67;98571.56;4915415;29;20028;-75
2021/06/18 04:26:04;;;;;;;9.05;5.38;;;;;;;17.64;76.13;98568.31;4916011;29;19927;-77
2021/06/18 04:28:30;;;;;;;9.02;5.20;;;;;;;17.79;75.49;98569.34;4916431;29;20030;-75
2021/06/18 04:30:56;;;;;;;9.32;5.18;;;;;;;17.87;75.40;98558.47;4916101;29;20087;-74
2021/06/18 04:33:21;;;;;;;7.43;4.95;;;;;;;17.97;75.39;98549.22;4915926;29;20424;-75
2021/06/18 04:35:47;;;;;;;8.45;4.70;;;;;;;18.09;74.58;98543.34;4916084;29;20028;-76
2021/06/18 04:38:12;;;;;;;8.57;4.55;;;;;;;18.21;73.80;98540.06;4914608;29;20036;-75
2021/06/18 04:40:38;;;;;;;6.90;5.07;;;;;;;18.32;73.56;98539.50;4915991;29;20087;-75
2021/06/18 04:43:04;;;;;;;8.38;5.53;;;;;;;18.22;73.52;98543.53;4916097;29;20060;-76
2021/06/18 04:45:29;;;;;;;6.15;4.25;;;;;;;18.29;73.30;98542.28;4914527;29;20024;-76
2021/06/18 04:47:56;;;;;;;6.85;4.60;;;;;;;18.22;74.20;98539.13;4915738;29;20027;-75
2021/06/18 04:50:22;;;;;;;8.93;5.25;;;;;;;18.15;73.81;98558.75;4916028;29;20059;-75
2021/06/18 04:52:47;;;;;;;11.40;5.38;;;;;;;18.43;73.10;98567.78;4915841;29;20066;-75
2021/06/18 04:55:17;;;;;;;9.27;5.18;;;;;;;18.47;73.38;98569.34;4914496;29;20139;-75
2021/06/18 04:57:47;;;;;;;9.25;5.20;;;;;;;18.53;72.96;98558.50;4915755;29;20043;-75
2021/06/18 05:00:15;;;;;;;12.02;5.63;;;;;;;18.56;72.73;98563.56;4915755;29;20059;-76
2021/06/18 05:02:40;;;;;;;9.85;4.45;;;;;;;18.73;71.88;98570.56;4911193;29;20032;-75
2021/06/18 05:05:06;;;;;;;8.05;5.85;;;;;;;18.77;72.14;98568.63;4911305;29;20028;-75
2021/06/18 05:07:32;;;;;;;8.60;4.88;;;;;;;18.91;70.86;98564.31;4914125;29;20024;-75
2021/06/18 05:09:57;;;;;;;7.68;4.75;;;;;;;19.07;70.11;98564.31;4912082;29;20021;-75
2021/06/18 05:12:23;;;;;;;8.27;4.70;;;;;;;19.12;69.15;98570.16;4900198;29;20032;-75
2021/06/18 05:14:49;;;;;;;11.98;5.28;;;;;;;19.41;68.41;98567.66;4900874;29;20028;-75
2021/06/18 05:17:14;;;;;;;9.93;5.47;;;;;;;19.34;69.11;98571.53;4914183;29;20032;-75
2021/06/18 05:19:40;;;;;;;11.95;5.50;;;;;;;19.52;68.65;98565.25;4903595;29;20059;-75
2021/06/18 05:22:05;;;;;;;8.52;4.55;;;;;;;19.53;68.83;98561.66;4913903;29;20033;-75
2021/06/18 05:24:31;;;;;;;7.22;5.38;;;;;;;19.72;66.97;98572.84;4900210;29;20391;-75
2021/06/18 05:26:56;;;;;;;5.53;4.82;;;;;;;19.73;66.98;98574.56;4898903;29;20392;-75
2021/06/18 05:29:22;;;;;;;7.70;5.00;;;;;;;19.77;67.49;98576.06;4899074;29;20016;-75
2021/06/18 05:31:47;;;;;;;10.00;5.25;;;;;;;19.80;67.73;98575.03;4902908;29;20505;-75
2021/06/18 05:34:13;;;;;;;7.75;5.25;;;;;;;19.83;67.26;98574.88;4918446;29;20032;-75
2021/06/18 05:36:39;;;;;;;6.07;4.95;;;;;;;19.93;68.11;98575.16;4924188;29;20028;-74
2021/06/18 05:39:05;;;;;;;8.98;5.10;;;;;;;19.87;67.77;98570.25;4911371;29;20050;-74
2021/06/18 05:41:31;;;;;;;9.90;5.30;;;;;;;19.95;66.53;98575.91;4918963;29;20076;-75
2021/06/18 05:43:56;;;;;;;9.07;4.95;;;;;;;19.72;65.89;98572.84;4917666;29;20035;-74
2021/06/18 05:46:21;;;;;;;6.82;4.63;;;;;;;19.94;67.50;98571.59;4917993;29;20115;-75
2021/06/18 05:48:47;;;;;;;8.52;5.53;;;;;;;19.97;67.90;98576.69;4907234;29;20044;-75
2021/06/18 05:51:12;;;;;;;8.98;5.70;;;;;;;19.72;69.15;98587.78;4914481;29;20060;-74
2021/06/18 05:53:38;;;;;;;8.73;5.75;;;;;;;19.54;69.50;98586.19;4901233;29;20032;-74
2021/06/18 05:56:03;;;;;;;7.25;5.25;;;;;;;19.84;69.54;98596.75;4918465;29;20103;-74
2021/06/18 05:58:29;;;;;;;21.50;6.05;;;;;;;20.02;69.05;98598.28;4917067;29;20032;-75
2021/06/18 06:00:54;;;;;;;9.73;5.50;;;;;;;20.38;67.66;98594.38;4916636;29;20481;-75
2021/06/18 06:03:19;;;;;;;16.50;5.55;;;;;;;20.40;66.62;98595.13;4918485;29;20500;-75
2021/06/18 06:05:45;;;;;;;7.63;5.05;;;;;;;20.75;65.55;98595.63;4918232;29;20028;-75
2021/06/18 06:08:11;;;;;;;16.35;5.05;;;;;;;20.82;64.79;98598.72;4916023;29;20028;-75
2021/06/18 06:10:37;;;;;;;6.50;4.75;;;;;;;21.23;64.29;98594.31;4906176;29;20451;-77
2021/06/18 06:13:02;;;;;;;7.43;4.72;;;;;;;21.04;64.15;98589.38;4907241;29;20040;-73
2021/06/18 06:15:27;;;;;;;5.85;4.70;;;;;;;21.33;63.90;98586.69;4906889;29;20390;-73
2021/06/18 06:17:53;;;;;;;6.10;4.43;;;;;;;21.47;63.42;98593.69;4909021;29;20038;-73
2021/06/18 06:20:18;;;;;;;8.27;4.38;;;;;;;21.51;63.09;98595.16;4909278;29;20401;-73
2021/06/18 06:22:44;;;;;;;8.23;5.30;;;;;;;21.49;63.83;98594.44;4904602;29;20043;-73
2021/06/18 06:25:10;;;;;;;4.97;4.15;;;;;;;21.74;62.63;98597.13;4903814;29;20730;-73
2021/06/18 06:27:36;;;;;;;5.50;4.05;;;;;;;22.19;61.94;98592.38;4903984;29;20039;-73
2021/06/18 06:30:01;;;;;;;8.55;4.20;;;;;;;22.52;59.73;98594.47;4904110;29;20057;-73
2021/06/18 06:32:27;;;;;;;6.28;4.03;;;;;;;22.88;58.66;98599.94;4902947;29;20024;-73
2021/06/18 06:34:52;;;;;;;10.45;3.92;;;;;;;22.83;57.97;98593.16;4907078;29;20609;-73
2021/06/18 06:37:17;;;;;;;6.68;4.18;;;;;;;22.89;57.69;98580.50;4905223;29;20044;-75
2021/06/18 06:39:43;;;;;;;8.10;4.60;;;;;;;22.90;57.87;98582.19;4907990;29;20024;-75
2021/06/18 06:42:08;;;;;;;8.88;4.47;;;;;;;22.92;57.67;98578.50;4904023;29;20036;-75
2021/06/18 06:44:34;;;;;;;10.40;4.18;;;;;;;23.68;55.95;98579.13;4906299;29;20038;-73
2021/06/18 06:46:59;;;;;;;10.27;4.55;;;;;;;24.07;55.42;98591.16;4905383;29;20520;-75
2021/06/18 06:49:25;;;;;;;6.65;4.45;;;;;;;24.08;54.48;98593.69;4904251;29;20060;-73
2021/06/18 06:51:51;;;;;;;8.20;4.47;;;;;;;24.69;52.01;98585.47;4903972;29;20167;-73
2021/06/18 06:54:17;;;;;;;8.10;3.72;;;;;;;26.29;49.37;98583.84;4903844;29;20599;-73
2021/06/18 06:56:42;;;;;;;5.88;4.10;;;;;;;27.14;46.72;98586.19;4902708;29;20047;-73
2021/06/18 06:59:07;;;;;;;7.65;3.90;;;;;;;27.66;44.49;98578.84;4904372;29;20033;-73
2021/06/18 07:01:33;;;;;;;9.85;4.20;;;;;;;29.20;41.66;98576.69;4908574;29;20052;-75
2021/06/18 07:04:00;;;;;;;14.60;3.97;;;;;;;30.33;39.76;98581.41;4909818;29;20474;-74
2021/06/18 07:06:26;;;;;;;7.57;3.58;;;;;;;30.53;37.54;98578.50;4907098;29;20084;-75
2021/06/18 07:08:51;;;;;;;4.20;3.55;;;;;;;31.54;37.27;98587.41;4907686;29;20456;-75
2021/06/18 07:11:17;;;;;;;4.88;3.60;;;;;;;33.40;33.11;98583.66;4908292;29;20031;-75
2021/06/18 07:13:42;;;;;;;6.90;3.08;;;;;;;33.27;32.78;98597.69;4909489;29;20072;-75
2021/06/18 07:16:09;;;;;;;6.28;3.00;;;;;;;34.87;28.99;98585.88;4906254;29;20036;-77
2021/06/18 07:18:35;;;;;;;6.30;3.33;;;;;;;35.02;29.88;98599.34;4906522;29;20028;-73
2021/06/18 07:21:01;;;;;;;8.48;3.25;;;;;;;34.89;30.91;98583.81;4905305;29;20036;-73
2021/06/18 07:23:26;;;;;;;3.50;3.17;;;;;;;35.76;29.01;98582.97;4903756;29;20028;-73
2021/06/18 07:25:52;;;;;;;9.45;3.20;;;;;;;36.57;27.84;98588.00;4904494;29;20035;-75
2021/06/18 07:28:17;;;;;;;4.47;2.97;;;;;;;35.69;28.42;98582.91;4908252;29;20087;-75
2021/06/18 07:30:43;;;;;;;7.53;2.88;;;;;;;36.21;28.26;98594.34;4906784;29;20400;-77
2021/06/18 07:33:08;;;;;;;4.88;3.17;;;;;;;37.80;25.68;98576.97;4904214;29;20040;-78
2021/06/18 07:35:35;;;;;;;8.90;3.13;;;;;;;36.61;27.13;98589.25;4902666;29;20091;-78
2021/06/18 07:38:00;;;;;;;7.85;2.75;;;;;;;37.88;25.26;98581.41;4908162;29;20043;-78
2021/06/18 07:40:26;;;;;;;5.45;2.92;;;;;;;36.60;26.44;98579.47;4908297;29;20028;-77
2021/06/18 07:42:51;;;;;;;3.15;2.53;;;;;;;37.37;25.82;98567.53;4903876;29;20481;-78
2021/06/18 07:45:16;;;;;;;7.32;3.10;;;;;;;36.29;27.51;98575.31;4900939;29;20036;-77
2021/06/18 07:47:43;;;;;;;5.30;3.47;;;;;;;36.87;26.16;98578.56;4906159;29;20095;-78
2021/06/18 07:50:16;;;;;;;3.70;3.35;;;;;;;36.52;27.04;98575.09;4908174;29;20028;-77
2021/06/18 07:52:41;;;;;;;5.15;2.42;;;;;;;37.14;26.04;98567.91;4905084;29;21293;-75
2021/06/18 07:55:10;;;;;;;3.97;3.08;;;;;;;37.48;26.15;98570.53;4902679;29;20137;-76
2021/06/18 07:57:36;;;;;;;;;;;;;;;37.21;26.78;98563.34;4907851;29;20384;-76
2021/06/18 08:00:04;;;;;;;8.52;3.25;;;;;;;36.04;27.45;98561.44;4907919;29;19923;-75
2021/06/18 08:02:29;;;;;;;5.32;2.85;;;;;;;36.40;27.37;98571.22;4905508;29;20036;-75
2021/06/18 08:04:55;;;;;;;3.25;2.90;;;;;;;37.63;25.25;98567.63;4900586;29;20468;-75
2021/06/18 08:07:21;;;;;;;3.88;2.85;;;;;;;37.91;25.40;98556.66;4905795;29;20505;-76
2021/06/18 08:09:46;;;;;;;5.13;3.08;;;;;;;38.97;24.05;98552.88;4902423;29;20676;-72
2021/06/18 08:12:12;;;;;;;5.50;2.78;;;;;;;39.38;23.70;98559.78;4905266;29;20035;-75
2021/06/18 08:14:37;;;;;;;10.70;3.38;;;;;;;39.17;23.74;98558.22;4905263;29;20024;-75
2021/06/18 08:17:03;;;;;;;5.82;3.00;;;;;;;39.41;23.95;98549.34;4907021;29;20127;-76
2021/06/18 08:19:28;;;;;;;4.75;3.13;;;;;;;38.97;24.79;98542.88;4901313;29;20036;-76
2021/06/18 08:21:53;;;;;;;7.30;3.15;;;;;;;39.42;23.22;98544.75;4904261;29;20032;-76
2021/06/18 08:24:19;;;;;;;6.57;3.22;;;;;;;36.04;27.56;98546.09;4905164;29;20454;-75
2021/06/18 08:26:44;;;;;;;8.23;3.30;;;;;;;39.46;24.06;98535.94;4902765;29;20110;-76
2021/06/18 08:29:09;;;;;;;6.97;2.67;;;;;;;40.19;23.16;98540.00;4900960;29;20812;-76
2021/06/18 08:31:35;;;;;;;5.22;2.65;;;;;;;39.25;24.05;98549.84;4906879;29;20118;-76
2021/06/18 08:34:00;;;;;;;5.78;2.67;;;;;;;39.11;24.21;98540.09;4904100;29;20031;-75
2021/06/18 08:36:26;;;;;;;5.63;3.00;;;;;;;38.61;25.11;98542.59;4904811;29;20437;-74
2021/06/18 08:38:51;;;;;;;7.13;3.50;;;;;;;38.53;24.71;98543.63;4905728;29;20078;-73
2021/06/18 08:41:16;;;;;;;8.60;3.40;;;;;;;39.62;24.12;98533.75;4903311;29;20032;-71
2021/06/18 08:43:44;;;;;;;4.32;3.15;;;;;;;39.51;24.25;98533.41;4901794;29;20549;-71
2021/06/18 08:46:09;;;;;;;4.68;3.22;;;;;;;39.28;24.68;98538.56;4898893;29;20107;-70
2021/06/18 08:48:34;;;;;;;4.65;3.33;;;;;;;38.69;26.15;98545.06;4903212;29;20035;-70
2021/06/18 08:51:02;;;;;;;14.75;3.90;;;;;;;39.04;25.11;98538.25;4904999;29;20858;-71
2021/06/18 08:53:29;;;;;;;5.03;3.13;;;;;;;38.88;25.29;98541.47;4906201;29;20056;-72
2021/06/18 08:55:54;;;;;;;9.82;3.38;;;;;;;36.59;27.11;98542.72;4905262;29;20028;-72
2021/06/18 08:58:22;;;;;;;5.93;3.65;;;;;;;37.98;26.53;98533.09;4901487;29;20032;-72
2021/06/18 09:00:48;;;;;;;3.75;3.33;;;;;;;39.59;24.59;98530.41;4907010;29;20024;-72
2021/06/18 09:03:36;;;;;;;7.03;3.85;;;;;;;40.49;23.35;98531.94;4906796;29;20445;-72
2021/06/18 09:06:25;;;;;;;7.88;3.30;;;;;;;41.05;22.46;98517.25;4904387;29;20071;-72
2021/06/18 09:09:20;;;;;;;8.02;3.47;;;;;;;38.52;25.65;98531.16;4906589;29;20024;-72
2021/06/18 09:11:53;;;;;;;8.40;3.75;;;;;;;37.45;26.80;98524.97;4906506;29;20036;-72
2021/06/18 09:14:31;;;;;;;5.72;3.58;;;;;;;36.85;28.17;98521.22;4906983;29;20785;-71
2021/06/18 09:17:09;;;;;;;3.85;3.17;;;;;;;38.15;26.83;98520.00;4900418;29;20063;-71
2021/06/18 09:19:38;;;;;;;7.75;3.70;;;;;;;38.70;25.85;98525.06;4900060;29;20032;-71
2021/06/18 09:22:24;;;;;;;5.45;3.13;;;;;;;37.97;27.10;98522.50;4904703;29;20036;-71
2021/06/18 09:24:57;;;;;;;5.03;3.97;;;;;;;38.26;26.24;98523.91;4903022;29;20028;-71
2021/06/18 09:27:34;;;;;;;8.25;3.60;;;;;;;38.06;26.30;98524.78;4900360;29;20092;-71
2021/06/18 09:30:36;;;;;;;8.15;3.58;;;;;;;38.49;26.44;98521.59;4900916;29;20397;-71
2021/06/18 09:33:19;;;;;;;6.38;3.90;;;;;;;37.00;27.75;98521.09;4920619;29;20040;-71
2021/06/18 09:36:03;;;;;;;3.55;3.25;;;;;;;38.70;26.03;98519.63;4864815;29;20481;-71
2021/06/18 09:38:47;;;;;;;5.78;3.60;;;;;;;38.13;26.45;98507.69;4903909;29;20386;-71
2021/06/18 09:41:41;;;;;;;5.65;3.63;;;;;;;35.92;28.39;98526.03;4906521;29;20043;-71
2021/06/18 09:44:16;;;;;;;7.07;3.33;;;;;;;39.44;24.52;98510.09;4905944;29;20441;-71
2021/06/18 09:46:44;;;;;;;8.43;4.18;;;;;;;39.34;23.35;98507.88;4903325;29;20103;-71
2021/06/18 09:49:33;;;;;;;;;;;;;;;37.24;24.36;98508.91;4901439;29;20035;-71
2021/06/18 09:52:02;;;;;;;4.32;2.83;;;;;;;40.46;21.78;98503.31;4904861;29;19919;-74
2021/06/18 09:54:32;;;;;;;8.38;3.10;;;;;;;38.63;24.62;98502.56;4906415;29;20102;-73
2021/06/18 09:57:09;;;;;;;3.88;2.92;;;;;;;40.24;22.08;98508.38;4906668;29;20106;-73
2021/06/18 09:59:58;;;;;;;3.05;2.67;;;;;;;40.40;21.66;98509.66;4908301;29;20505;-75
2021/06/18 10:02:45;;;;;;;7.07;3.10;;;;;;;40.46;21.83;98511.47;4903534;29;20043;-76
2021/06/18 10:05:16;;;;;;;4.90;2.97;;;;;;;40.74;22.00;98504.69;4907847;29;20485;-74
2021/06/18 10:07:43;;;;;;;6.57;3.00;;;;;;;41.38;21.02;98502.38;4904363;29;20055;-76
2021/06/18 10:10:17;;;;;;;8.60;3.50;;;;;;;41.34;20.60;98500.09;4908241;29;20532;-76
2021/06/18 10:12:45;;;;;;;5.10;2.97;;;;;;;41.57;20.99;98499.31;4904158;29;20926;-75
2021/06/18 10:15:13;;;;;;;3.50;3.03;;;;;;;41.97;20.31;98495.97;4909102;29;20032;-74
2021/06/18 10:17:40;;;;;;;5.63;3.35;;;;;;;41.03;22.18;98508.50;4903822;29;20032;-74
2021/06/18 10:20:11;;;;;;;3.88;2.63;;;;;;;41.63;19.81;98507.63;4907976;29;20036;-76
2021/06/18 10:22:46;;;;;;;5.68;3.50;;;;;;;41.85;20.01;98506.03;4905497;29;20058;-76
2021/06/18 10:25:17;;;;;;;12.07;5.25;;;;;;;41.48;20.71;98499.91;4907836;29;20489;-76
2021/06/18 10:27:48;;;;;;;8.13;3.25;;;;;;;40.82;21.94;98494.34;4906613;29;20036;-76
2021/06/18 10:30:28;;;;;;;5.40;3.17;;;;;;;40.81;22.52;98489.09;4947663;23;20115;-75
2021/06/18 10:32:56;;;;;;;9.02;3.08;;;;;;;43.13;19.60;98484.22;4909381;29;20111;-75
2021/06/18 10:35:40;;;;;;;5.32;2.50;;;;;;;41.49;20.40;98490.66;4909531;29;20050;-75
2021/06/18 10:38:12;;;;;;;6.75;2.55;;;;;;;40.23;19.72;98493.16;4907352;29;20032;-76
2021/06/18 10:40:45;;;;;;;10.57;2.50;;;;;;;41.72;18.08;98479.81;4907688;29;20485;-75
2021/06/18 10:43:15;;;;;;;4.07;2.55;;;;;;;40.30;19.20;98484.91;4907426;29;20032;-76
2021/06/18 10:45:58;;;;;;;4.20;2.33;;;;;;;37.85;21.45;98484.41;4907382;29;20116;-75
2021/06/18 10:48:50;;;;;;;3.95;2.67;;;;;;;40.34;20.58;98483.41;4906348;29;20127;-73
2021/06/18 10:51:28;;;;;;;3.53;1.83;;;;;;;40.04;19.19;98478.69;4908578;29;20116;-73
2021/06/18 10:53:56;;;;;;;;;;;;;;;39.43;20.10;98476.72;4909465;29;20083;-73
2021/06/18 10:56:42;;;;;;;5.13;2.00;;;;;;;39.21;21.00;98478.13;4909058;29;19923;-73
2021/06/18 10:59:08;;;;;;;3.75;2.58;;;;;;;36.17;24.44;98480.59;4908499;29;20110;-73
2021/06/18 11:01:37;;;;;;;4.82;2.40;;;;;;;35.84;26.05;98480.34;4907987;29;20028;-72
2021/06/18 11:04:03;;;;;;;4.68;2.78;;;;;;;39.73;21.60;98470.66;4908754;29;20118;-73
2021/06/18 11:06:50;;;;;;;9.18;2.75;;;;;;;38.95;21.47;98468.25;4908523;29;20028;-75
2021/06/18 11:09:40;;;;;;;3.50;2.35;;;;;;;39.49;20.86;98464.97;4908313;29;20808;-76
2021/06/18 11:12:23;;;;;;;7.53;2.40;;;;;;;40.58;19.34;98463.50;4908199;29;20493;-75
2021/06/18 11:14:54;;;;;;;3.35;2.28;;;;;;;41.20;19.60;98465.16;4908474;29;20113;-76
2021/06/18 11:17:48;;;;;;;5.57;2.35;;;;;;;41.32;19.59;98457.88;4908327;29;20032;-76
2021/06/18 11:20:46;;;;;;;3.25;2.05;;;;;;;41.40;19.39;98460.28;4907757;29;20061;-76
2021/06/18 11:23:20;;;;;;;5.40;2.25;;;;;;;41.22;19.87;98452.16;4907387;29;20036;-75
2021/06/18 11:25:51;;;;;;;3.65;2.63;;;;;;;39.33;20.89;98450.09;4907661;29;20039;-75
2021/06/18 11:28:20;;;;;;;6.78;2.80;;;;;;;39.19;21.85;98453.94;4908064;29;20028;-75
2021/06/18 11:30:57;;;;;;;3.22;2.60;;;;;;;39.08;20.90;98452.75;4908079;29;20039;-75
2021/06/18 11:36:20;;;;;;;4.35;2.53;;;;;;;38.04;22.73;98451.06;4907117;29;20504;-75
2021/06/18 11:38:51;;;;;;;4.30;2.65;;;;;;;37.41;24.46;98439.06;4907974;29;20751;-75
2021/06/18 11:41:22;;;;;;;5.97;2.38;;;;;;;39.92;21.07;98445.19;4908345;29;20087;-75
2021/06/18 11:43:53;;;;;;;4.55;2.70;;;;;;;40.32;20.92;98444.78;4908096;29;20036;-73
2021/06/18 11:46:20;;;;;;;4.35;2.80;;;;;;;40.29;21.24;98439.81;4907350;29;20024;-72
2021/06/18 11:48:46;;;;;;;7.90;2.80;;;;;;;40.64;20.44;98444.63;4907355;29;20112;-73
2021/06/18 11:51:25;;;;;;;5.72;2.58;;;;;;;39.07;20.43;98440.25;4908162;29;20027;-72
2021/06/18 11:53:51;;;;;;;4.45;2.38;;;;;;;39.53;20.57;98439.06;4907950;29;20462;-72
2021/06/18 11:56:17;;;;;;;5.78;2.30;;;;;;;38.27;21.61;98439.78;4907935;29;20032;-72
2021/06/18 11:58:45;;;;;;;3.90;2.67;;;;;;;36.91;24.09;98439.41;4907414;29;20055;-72
2021/06/18 12:01:16;;;;;;;4.97;3.03;;;;;;;35.85;24.94;98441.56;4907422;29;20024;-72
2021/06/18 12:03:44;;;;;;;7.72;2.40;;;;;;;35.35;25.58;98432.66;4907769;29;20046;-72
2021/06/18 12:06:27;;;;;;;6.93;2.65;;;;;;;35.19;25.92;98430.22;4907712;29;20039;-72
2021/06/18 12:09:01;;;;;;;5.57;2.83;;;;;;;35.11;24.53;98436.59;4907661;29;20032;-72
2021/06/18 12:11:32;;;;;;;7.53;3.08;;;;;;;35.14;25.46;98435.34;4906584;29;20032;-72
2021/06/18 12:13:58;;;;;;;3.58;2.72;;;;;;;35.09;26.40;98437.81;4907794;29;20034;-73
2021/06/18 12:16:28;;;;;;;7.30;3.00;;;;;;;35.19;25.80;98428.34;4907727;29;20032;-73
2021/06/18 12:18:53;;;;;;;7.63;2.78;;;;;;;34.77;25.88;98439.94;4907487;29;20992;-72
2021/06/18 12:21:26;;;;;;;3.15;2.60;;;;;;;34.79;25.88;98440.56;4905657;29;20024;-72
2021/06/18 12:24:02;;;;;;;3.53;2.83;;;;;;;35.37;25.37;98430.59;4905427;29;20497;-72
2021/06/18 12:26:28;;;;;;;3.10;2.50;;;;;;;35.27;25.35;98435.47;4907404;29;20039;-75
2021/06/18 12:28:54;;;;;;;3.70;2.60;;;;;;;35.50;25.13;98435.31;4906196;29;20570;-72
2021/06/18 12:31:20;;;;;;;3.90;2.80;;;;;;;35.71;24.21;98429.00;4907606;29;20539;-72
2021/06/18 12:33:47;;;;;;;2.67;2.42;;;;;;;35.25;25.87;98426.78;4906658;29;20043;-72
2021/06/18 12:36:17;;;;;;;6.88;2.20;;;;;;;33.87;26.25;98424.88;4906927;29;21089;-75
2021/06/18 12:38:46;;;;;;;8.55;2.10;;;;;;;34.78;23.66;98430.84;4907199;29;20042;-75
2021/06/18 12:41:28;;;;;;;2.95;2.00;;;;;;;35.06;23.61;98419.31;4907555;29;20066;-75
2021/06/18 12:44:05;;;;;;;4.70;2.20;;;;;;;35.03;21.22;98423.25;4905220;29;20047;-72
2021/06/18 12:46:31;;;;;;;6.18;2.03;;;;;;;35.09;22.22;98421.63;4906110;29;20036;-72
2021/06/18 12:49:11;;;;;;;4.25;1.88;;;;;;;34.97;21.07;98419.47;4907312;29;20039;-72
2021/06/18 12:51:38;;;;;;;5.45;1.80;;;;;;;35.00;20.10;98421.75;4907223;29;20032;-72
2021/06/18 12:54:08;;;;;;;6.28;4.65;;;;;;;35.10;22.12;98417.91;4907126;29;20040;-75
2021/06/18 12:56:44;;;;;;;5.68;2.08;;;;;;;34.88;21.31;98415.19;4906675;29;20032;-72
2021/06/18 12:59:14;;;;;;;3.30;2.05;;;;;;;35.28;22.28;98415.59;4906522;29;20036;-73
2021/06/18 13:01:42;;;;;;;5.82;2.08;;;;;;;35.18;21.66;98415.09;4906873;29;20024;-75
2021/06/18 13:04:10;;;;;;;2.85;1.98;;;;;;;35.19;21.27;98416.75;4907232;29;20039;-75
2021/06/18 13:06:44;;;;;;;4.40;2.28;;;;;;;35.47;21.12;98411.44;4906537;29;20058;-72
2021/06/18 13:09:12;;;;;;;4.28;2.30;;;;;;;35.34;21.80;98412.09;4906379;29;20032;-72
2021/06/18 13:11:39;;;;;;;6.35;2.25;;;;;;;35.06;21.81;98405.84;4906519;29;20028;-72
2021/06/18 13:14:18;;;;;;;6.53;2.30;;;;;;;35.61;22.59;98404.28;4906924;29;20028;-72
2021/06/18 13:16:49;;;;;;;3.85;2.45;;;;;;;34.46;21.74;98406.03;4905691;29;20032;-72
2021/06/18 13:19:15;;;;;;;3.55;1.90;;;;;;;33.57;24.07;98404.38;4905365;29;20111;-72
2021/06/18 13:21:43;;;;;;;5.57;2.50;;;;;;;34.34;23.25;98396.78;4907101;29;20039;-72
2021/06/18 13:24:11;;;;;;;4.25;2.15;;;;;;;34.56;22.84;98404.91;4907112;29;20123;-75
2021/06/18 13:26:37;;;;;;;10.38;2.15;;;;;;;34.12;22.74;98400.41;4906929;29;20059;-75
2021/06/18 13:29:14;;;;;;;5.47;2.40;;;;;;;34.83;22.54;98396.09;4906561;29;20036;-75
2021/06/18 13:31:40;;;;;;;2.75;2.22;;;;;;;34.58;23.92;98394.81;4906838;29;20032;-75
2021/06/18 13:34:11;;;;;;;9.82;2.63;;;;;;;35.01;22.29;98393.81;4910356;29;20032;-75
2021/06/18 13:36:39;;;;;;;3.85;2.38;;;;;;;35.19;21.98;98395.19;4910103;29;20098;-75
2021/06/18 13:39:24;;;;;;;4.72;2.38;;;;;;;35.36;21.96;98390.38;4910307;29;20036;-75
2021/06/18 13:41:52;;;;;;;7.75;2.53;;;;;;;35.55;20.56;98388.88;4928104;29;20036;-75
2021/06/18 13:44:18;;;;;;;5.88;2.60;;;;;;;34.95;21.81;98388.31;4906615;29;20119;-76
2021/06/18 13:46:44;;;;;;;5.03;2.22;;;;;;;35.62;22.88;98384.38;4902252;29;20042;-75
2021/06/18 13:49:12;;;;;;;5.05;2.42;;;;;;;35.68;22.16;98383.56;4900210;29;20032;-72
2021/06/18 13:51:40;;;;;;;8.90;2.60;;;;;;;35.37;23.09;98379.41;4903272;29;20039;-72
2021/06/18 13:54:06;;;;;;;6.20;2.30;;;;;;;35.35;22.19;98384.16;4904939;29;20043;-72
2021/06/18 13:56:31;;;;;;;3.72;2.30;;;;;;;35.43;21.99;98381.28;4907043;29;20032;-72
2021/06/18 13:58:58;;;;;;;6.50;2.83;;;;;;;34.95;22.60;98378.41;4905871;29;20036;-73
2021/06/18 14:01:23;;;;;;;5.80;2.42;;;;;;;34.55;22.47;98371.78;4908290;29;20115;-72
2021/06/18 14:03:49;;;;;;;5.38;2.60;;;;;;;35.24;23.27;98371.19;4908923;29;20028;-72
2021/06/18 14:06:16;;;;;;;5.07;2.42;;;;;;;35.18;22.72;98372.00;4906572;29;20553;-72
2021/06/18 14:08:42;;;;;;;8.23;3.08;;;;;;;35.64;22.49;98364.28;4907425;29;20024;-75
2021/06/18 14:11:12;;;;;;;8.00;2.40;;;;;;;35.64;22.49;98366.16;4908008;29;20036;-75
2021/06/18 14:13:37;;;;;;;9.00;2.58;;;;;;;35.64;22.28;98366.97;4908604;29;20042;-75
2021/06/18 14:16:03;;;;;;;6.70;2.58;;;;;;;35.63;21.69;98364.47;4906261;29;20032;-72
2021/06/18 14:18:28;;;;;;;5.45;2.40;;;;;;;35.02;22.01;98373.09;4906509;29;20043;-75
2021/06/18 14:20:54;;;;;;;5.65;2.47;;;;;;;35.42;22.53;98368.84;4905393;29;20151;-74
2021/06/18 14:23:21;;;;;;;4.93;2.53;;;;;;;35.19;22.58;98357.47;4906264;29;20051;-75
2021/06/18 14:25:48;;;;;;;6.68;2.47;;;;;;;35.36;22.12;98358.88;4908832;29;20243;-75
2021/06/18 14:28:14;;;;;;;6.43;2.42;;;;;;;35.23;21.97;98358.75;4909076;29;21110;-72
2021/06/18 14:30:40;;;;;;;4.13;2.60;;;;;;;35.49;20.98;98350.91;4908609;29;20402;-75
2021/06/18 14:33:12;;;;;;;10.25;2.85;;;;;;;35.51;22.08;98351.53;4907893;29;20043;-72
2021/06/18 14:35:39;;;;;;;5.03;2.75;;;;;;;35.00;21.54;98349.03;4906787;29;20040;-75
2021/06/18 14:38:04;;;;;;;4.07;2.47;;;;;;;35.12;22.76;98348.53;4906978;29;20039;-75
2021/06/18 14:40:30;;;;;;;6.63;2.78;;;;;;;35.34;21.54;98350.13;4904413;29;20028;-75
2021/06/18 14:42:55;;;;;;;5.32;2.20;;;;;;;34.81;21.23;98349.66;4907119;29;20433;-75
2021/06/18 14:45:21;;;;;;;5.18;2.55;;;;;;;35.32;21.22;98346.81;4908531;29;20634;-73
2021/06/18 14:47:46;;;;;;;8.00;2.28;;;;;;;35.28;22.51;98340.16;4907363;29;20039;-72
2021/06/18 14:50:12;;;;;;;8.48;2.95;;;;;;;35.45;21.50;98346.94;4906685;29;20168;-75
2021/06/18 14:52:39;;;;;;;7.57;2.40;;;;;;;35.35;21.94;98346.44;4906164;29;20038;-76
2021/06/18 14:55:07;;;;;;;8.23;2.77;;;;;;;34.75;21.93;98332.44;4906835;29;20035;-76
2021/06/18 14:57:32;;;;;;;7.38;2.55;;;;;;;35.15;23.00;98332.78;4906584;29;20106;-71
2021/06/18 14:59:57;;;;;;;8.23;3.03;;;;;;;35.53;21.63;98327.91;4906633;29;20695;-73
2021/06/18 15:02:23;;;;;;;6.10;2.50;;;;;;;35.50;20.78;98333.72;4905102;29;20280;-71
2021/06/18 15:04:48;;;;;;;8.35;2.60;;;;;;;35.34;21.15;98328.56;4907024;29;20550;-74
2021/06/18 15:07:13;;;;;;;18.35;3.08;;;;;;;34.85;20.82;98329.41;4904659;29;20119;-71
2021/06/18 15:09:39;;;;;;;9.32;2.78;;;;;;;34.68;22.67;98322.63;4907776;29;20024;-74
2021/06/18 15:12:04;;;;;;;11.43;3.10;;;;;;;35.03;21.33;98326.28;4908452;29;20098;-75
2021/06/18 15:14:29;;;;;;;16.08;2.90;;;;;;;35.40;21.24;98327.81;4906758;29;20572;-70
2021/06/18 15:16:55;;;;;;;7.63;2.58;;;;;;;35.37;20.92;98330.06;4907419;29;20462;-74
2021/06/18 15:19:21;;;;;;;12.63;2.97;;;;;;;35.42;21.20;98330.28;4902880;29;20553;-74
2021/06/18 15:21:46;;;;;;;7.63;2.90;;;;;;;35.56;21.25;98320.47;4905738;29;20032;-75
2021/06/18 15:24:11;;;;;;;12.73;3.17;;;;;;;35.18;21.00;98318.09;4907239;29;20498;-74
2021/06/18 15:26:38;;;;;;;8.20;2.67;;;;;;;35.00;21.36;98322.09;4906334;29;20276;-71
2021/06/18 15:29:04;;;;;;;10.68;2.60;;;;;;;34.82;20.71;98324.44;4906871;29;20406;-71
2021/06/18 15:31:30;;;;;;;12.75;2.97;;;;;;;34.72;21.00;98318.53;4906427;29;20035;-71
2021/06/18 15:33:55;;;;;;;8.68;2.63;;;;;;;34.61;19.87;98322.56;4907070;29;20043;-75
2021/06/18 15:36:21;;;;;;;3.88;2.45;;;;;;;34.82;20.65;98319.03;4905510;29;20028;-74
2021/06/18 15:38:47;;;;;;;11.88;2.72;;;;;;;35.25;19.90;98316.31;4906269;29;20047;-75
2021/06/18 15:41:12;;;;;;;7.25;2.35;;;;;;;35.28;20.61;98310.50;4906258;29;20039;-71
2021/06/18 15:43:38;;;;;;;9.50;3.28;;;;;;;35.38;20.77;98308.28;4906611;29;20027;-71
2021/06/18 15:46:05;;;;;;;8.85;2.55;;;;;;;35.31;21.00;98312.81;4905946;29;20030;-71
2021/06/18 15:48:32;;;;;;;9.88;2.72;;;;;;;34.82;22.77;98305.59;4906472;29;20020;-75
2021/06/18 15:50:58;;;;;;;8.13;3.10;;;;;;;34.84;24.58;98311.59;4906922;29;20028;-75
2021/06/18 15:53:24;;;;;;;7.90;2.83;;;;;;;33.81;24.71;98304.66;4908044;29;20119;-75
2021/06/18 15:55:49;;;;;;;9.23;3.00;;;;;;;33.89;25.61;98299.16;4907154;29;20118;-73
2021/06/18 15:58:14;;;;;;;12.25;2.80;;;;;;;34.06;24.16;98290.91;4907968;29;20666;-71
2021/06/18 16:00:40;;;;;;;10.65;2.75;;;;;;;33.97;24.39;98291.00;4908012;29;20945;-74